Time;durP1;ratioP1;P1;durP2;ratioP2;P2;SDS_P1;SDS_P2;PMS_P1;PMS_P2;Temp;Humidity;BMP_temperature;BMP_pressure;BME280_temperature;BME280_humidity;BME280_pressure;Samples;Min_cycle;Max_cycle;Signal;HPM_P1;HPM_P2
2022/03/22 00:01:24;;;;;;;22.38;13.95;;;7.10;99.90;;;;;;4835188;29;20057;-79
2022/03/22 00:03:50;;;;;;;23.30;13.52;;;7.10;99.90;;;;;;4811481;29;20094;-78
2022/03/22 00:06:18;;;;;;;24.77;13.48;;;7.10;99.90;;;;;;4834742;29;20098;-79
2022/03/22 00:08:44;;;;;;;25.98;15.15;;;7.10;99.90;;;;;;4799250;29;20135;-79
2022/03/22 00:11:11;;;;;;;28.98;17.40;;;7.00;99.90;;;;;;4820625;29;20128;-79
2022/03/22 00:13:38;;;;;;;28.25;17.00;;;6.90;99.90;;;;;;4805118;29;20057;-79
2022/03/22 00:16:04;;;;;;;30.40;17.35;;;6.90;99.90;;;;;;4813138;29;20400;-78
2022/03/22 00:18:30;;;;;;;33.28;17.80;;;6.80;99.90;;;;;;4822148;29;20054;-78
2022/03/22 00:20:59;;;;;;;35.70;20.52;;;6.80;99.90;;;;;;4837009;29;20058;-79
2022/03/22 00:23:25;;;;;;;34.25;19.48;;;6.70;99.90;;;;;;4809529;29;20043;-79
2022/03/22 00:25:50;;;;;;;35.13;19.23;;;6.60;99.90;;;;;;4810748;29;20727;-79
2022/03/22 00:28:16;;;;;;;33.25;18.92;;;6.60;99.90;;;;;;4837278;29;20058;-78
2022/03/22 00:30:43;;;;;;;31.35;18.17;;;6.60;99.90;;;;;;4833537;29;20051;-79
2022/03/22 00:33:09;;;;;;;35.40;21.40;;;6.70;99.90;;;;;;4807834;29;20061;-78
2022/03/22 00:35:37;;;;;;;35.78;20.92;;;6.70;99.90;;;;;;4814138;29;20050;-77
2022/03/22 00:38:11;;;;;;;33.33;18.35;;;6.80;99.90;;;;;;4805038;29;20062;-79
2022/03/22 00:40:38;;;;;;;31.00;17.23;;;6.80;99.90;;;;;;4803937;29;20505;-79
2022/03/22 00:43:04;;;;;;;27.20;16.00;;;6.80;99.90;;;;;;4820295;29;20126;-79
2022/03/22 00:45:35;;;;;;;29.00;16.77;;;6.80;99.90;;;;;;4834250;29;20105;-79
2022/03/22 00:48:02;;;;;;;31.10;18.83;;;6.80;99.90;;;;;;4810420;29;20050;-78
2022/03/22 00:50:34;;;;;;;30.40;15.93;;;6.80;99.90;;;;;;4819450;29;20082;-79
2022/03/22 00:53:01;;;;;;;29.38;16.77;;;6.80;99.90;;;;;;4805156;29;20482;-79
2022/03/22 00:55:27;;;;;;;32.35;18.73;;;6.80;99.90;;;;;;4817410;29;20106;-79
2022/03/22 00:57:54;;;;;;;30.48;17.33;;;6.70;99.90;;;;;;4805873;29;20061;-79
2022/03/22 01:00:24;;;;;;;29.23;17.27;;;6.70;99.90;;;;;;4834080;29;20099;-78
2022/03/22 01:02:51;;;;;;;29.15;17.73;;;6.80;99.90;;;;;;4832004;29;20062;-78
2022/03/22 01:05:19;;;;;;;41.28;22.38;;;6.70;99.90;;;;;;4804320;29;20066;-78
2022/03/22 01:07:55;;;;;;;39.53;22.10;;;6.70;99.90;;;;;;4808876;29;20061;-80
2022/03/22 01:10:23;;;;;;;33.45;20.50;;;6.60;99.90;;;;;;4808689;29;20058;-79
2022/03/22 01:12:48;;;;;;;32.85;17.75;;;6.60;99.90;;;;;;4812311;29;20053;-79
2022/03/22 01:15:16;;;;;;;32.83;18.67;;;6.60;99.90;;;;;;4810874;29;20536;-79
2022/03/22 01:17:43;;;;;;;31.25;17.92;;;6.60;99.90;;;;;;4816634;29;20682;-80
2022/03/22 01:27:58;;;;;;;33.00;16.05;;;6.50;99.90;;;;;;5015107;24;20166;-79
2022/03/22 01:30:25;;;;;;;34.40;18.83;;;6.40;99.90;;;;;;4819967;29;20138;-78
2022/03/22 01:32:52;;;;;;;32.10;18.45;;;6.40;99.90;;;;;;4816175;29;20051;-76
2022/03/22 01:35:20;;;;;;;32.17;17.38;;;6.40;99.90;;;;;;4824083;29;20115;-76
2022/03/22 01:37:49;;;;;;;30.70;16.33;;;6.40;99.90;;;;;;4838811;29;20506;-75
2022/03/22 01:40:17;;;;;;;33.28;19.27;;;6.40;99.90;;;;;;4823862;29;20058;-75
2022/03/22 01:42:43;;;;;;;33.25;18.20;;;6.30;99.90;;;;;;4823619;29;20082;-75
2022/03/22 01:45:10;;;;;;;31.63;17.98;;;6.40;99.90;;;;;;4838951;29;20069;-75
2022/03/22 01:47:40;;;;;;;32.28;18.50;;;6.30;99.90;;;;;;4823960;29;20446;-75
2022/03/22 01:50:11;;;;;;;31.02;18.15;;;6.30;99.90;;;;;;4824586;29;20186;-75
2022/03/22 01:52:40;;;;;;;34.63;20.63;;;6.40;99.90;;;;;;4823584;29;20134;-75
2022/03/22 01:55:07;;;;;;;32.53;20.23;;;6.40;99.90;;;;;;4823967;29;20054;-76
2022/03/22 01:57:33;;;;;;;35.72;21.27;;;6.40;99.90;;;;;;4808396;29;20069;-75
2022/03/22 02:00:01;;;;;;;42.63;23.58;;;6.40;99.90;;;;;;4824378;29;20054;-75
2022/03/22 02:08:00;;;;;;;36.13;19.88;;;6.30;99.90;;;;;;4824067;29;20512;-75
2022/03/22 02:10:26;;;;;;;33.72;19.60;;;6.20;99.90;;;;;;4824105;29;20115;-75
2022/03/22 02:12:52;;;;;;;36.40;21.40;;;6.20;99.90;;;;;;4823478;29;20050;-75
2022/03/22 02:15:19;;;;;;;26.58;16.15;;;6.20;99.90;;;;;;4824189;29;20133;-75
2022/03/22 02:17:46;;;;;;;32.53;19.58;;;6.20;99.90;;;;;;4824254;29;20069;-75
2022/03/22 02:20:13;;;;;;;38.10;21.55;;;6.20;99.90;;;;;;4824147;29;20050;-75
2022/03/22 02:22:53;;;;;;;32.92;19.02;;;6.20;99.90;;;;;;4838334;29;20051;-75
2022/03/22 02:25:19;;;;;;;32.38;18.63;;;6.20;99.90;;;;;;4824351;29;20057;-75
2022/03/22 02:27:48;;;;;;;33.22;19.65;;;6.10;99.90;;;;;;4823937;29;20062;-75
2022/03/22 02:30:15;;;;;;;32.45;18.60;;;6.00;99.90;;;;;;4823607;29;20063;-75
2022/03/22 02:32:53;;;;;;;32.35;20.02;;;6.00;99.90;;;;;;4824389;29;20054;-75
2022/03/22 02:35:19;;;;;;;37.10;21.45;;;6.00;99.90;;;;;;4827698;29;20114;-75
2022/03/22 02:37:46;;;;;;;30.92;19.10;;;6.00;99.90;;;;;;4826664;29;20058;-75
2022/03/22 02:40:13;;;;;;;29.83;17.08;;;5.90;99.90;;;;;;4811772;29;20136;-75
2022/03/22 02:42:49;;;;;;;28.77;15.60;;;5.90;99.90;;;;;;4842130;29;20050;-75
2022/03/22 02:45:16;;;;;;;25.40;16.77;;;5.80;99.90;;;;;;4828030;29;20085;-75
2022/03/22 02:47:42;;;;;;;34.15;19.88;;;5.70;99.90;;;;;;4841475;29;20069;-75
2022/03/22 02:50:10;;;;;;;35.80;20.85;;;5.60;99.90;;;;;;4841555;29;20489;-76
2022/03/22 02:52:38;;;;;;;35.42;19.48;;;5.70;99.90;;;;;;4827880;29;20370;-76
2022/03/22 02:55:06;;;;;;;33.00;19.60;;;5.70;99.90;;;;;;4827076;29;20053;-75
2022/03/22 02:57:35;;;;;;;34.63;21.52;;;5.70;99.90;;;;;;4826246;29;20058;-75
2022/03/22 03:00:03;;;;;;;32.92;19.98;;;5.70;99.90;;;;;;4825957;29;20058;-75
2022/03/22 03:02:29;;;;;;;32.42;19.10;;;5.70;99.90;;;;;;4825732;29;20054;-75
2022/03/22 03:04:55;;;;;;;37.05;20.13;;;5.70;99.90;;;;;;4811852;29;20058;-75
2022/03/22 03:07:20;;;;;;;34.78;19.65;;;5.70;99.90;;;;;;4826103;29;20054;-75
2022/03/22 03:09:46;;;;;;;35.22;21.23;;;5.70;99.90;;;;;;4841183;29;20092;-75
2022/03/22 03:12:12;;;;;;;38.67;23.00;;;5.70;99.90;;;;;;4826520;29;20137;-75
2022/03/22 03:14:40;;;;;;;36.47;22.42;;;5.80;99.90;;;;;;4841621;29;20054;-75
2022/03/22 03:17:09;;;;;;;39.90;23.65;;;5.80;99.90;;;;;;4826115;29;20057;-75
2022/03/22 03:19:34;;;;;;;36.03;20.98;;;5.80;99.90;;;;;;4841041;29;20118;-75
2022/03/22 03:22:03;;;;;;;35.35;20.00;;;5.80;99.90;;;;;;4826526;29;20483;-75
2022/03/22 03:24:30;;;;;;;42.10;24.42;;;5.80;99.90;;;;;;4825828;29;20492;-75
2022/03/22 03:26:56;;;;;;;43.03;22.90;;;5.80;99.90;;;;;;4825621;29;20503;-75
2022/03/22 03:29:22;;;;;;;39.28;21.77;;;5.80;99.90;;;;;;4825003;29;20062;-75
2022/03/22 03:31:48;;;;;;;38.22;21.45;;;5.80;99.90;;;;;;4825775;29;20065;-75
2022/03/22 03:34:15;;;;;;;37.58;22.40;;;5.80;99.90;;;;;;4825770;29;20066;-75
2022/03/22 03:36:41;;;;;;;33.78;20.60;;;5.90;99.90;;;;;;4825905;29;20050;-75
2022/03/22 03:39:08;;;;;;;38.40;21.63;;;5.90;99.90;;;;;;4842014;29;20053;-75
2022/03/22 03:47:03;;;;;;;36.63;21.88;;;5.90;99.90;;;;;;4825604;29;20066;-75
2022/03/22 03:49:30;;;;;;;37.42;21.02;;;5.90;99.90;;;;;;4826461;29;20592;-75
2022/03/22 03:51:55;;;;;;;37.40;22.95;;;6.00;99.90;;;;;;4826213;29;20404;-75
2022/03/22 03:54:21;;;;;;;33.88;20.38;;;6.00;99.90;;;;;;4825234;29;20046;-75
2022/03/22 03:56:47;;;;;;;37.83;23.65;;;6.00;99.90;;;;;;4825700;29;20498;-75
2022/03/22 03:59:14;;;;;;;36.63;22.10;;;5.90;99.90;;;;;;4826044;29;20381;-75
2022/03/22 04:01:39;;;;;;;38.30;21.67;;;5.90;99.90;;;;;;4840381;29;20050;-75
2022/03/22 04:04:05;;;;;;;35.33;21.23;;;5.90;99.90;;;;;;4825263;29;20060;-75
2022/03/22 04:06:32;;;;;;;38.33;22.83;;;5.90;99.90;;;;;;4840572;29;20061;-75
2022/03/22 04:08:58;;;;;;;33.60;20.30;;;5.90;99.90;;;;;;4825223;29;20133;-75
2022/03/22 04:11:23;;;;;;;39.50;21.95;;;5.90;99.90;;;;;;4825445;29;20086;-76
2022/03/22 04:13:49;;;;;;;38.20;21.60;;;5.90;99.90;;;;;;4810732;29;20495;-76
2022/03/22 04:16:15;;;;;;;36.40;21.75;;;5.90;99.90;;;;;;4825323;29;20077;-75
2022/03/22 04:18:41;;;;;;;35.47;21.48;;;5.90;99.90;;;;;;4825989;29;20408;-75
2022/03/22 04:21:07;;;;;;;36.25;22.05;;;5.90;99.90;;;;;;4824782;29;20484;-76
2022/03/22 04:23:33;;;;;;;38.28;22.40;;;5.90;99.90;;;;;;4825393;29;20057;-75
2022/03/22 04:25:59;;;;;;;33.80;20.48;;;5.90;99.90;;;;;;4840063;29;20389;-75
2022/03/22 04:33:53;;;;;;;76.32;66.75;;;5.80;99.90;;;;;;4824748;29;20062;-77
2022/03/22 04:36:19;;;;;;;46.53;34.00;;;5.80;99.90;;;;;;4825436;29;20050;-77
2022/03/22 04:38:45;;;;;;;41.50;25.67;;;5.80;99.90;;;;;;4839638;29;20476;-77
2022/03/22 04:41:10;;;;;;;32.85;20.85;;;5.70;99.90;;;;;;4824683;29;20106;-77
2022/03/22 04:43:36;;;;;;;37.58;22.27;;;5.70;99.90;;;;;;4824609;29;20134;-77
2022/03/22 04:46:02;;;;;;;35.42;20.75;;;5.70;99.90;;;;;;4825583;29;20086;-77
2022/03/22 04:48:28;;;;;;;36.10;21.88;;;5.70;99.90;;;;;;4840027;29;20054;-77
2022/03/22 04:56:43;;;;;;;37.33;21.25;;;5.70;99.90;;;;;;4824865;29;20046;-77
2022/03/22 04:59:08;;;;;;;32.00;19.60;;;5.60;99.90;;;;;;4824634;29;20069;-76
2022/03/22 05:01:33;;;;;;;33.42;20.73;;;5.60;99.90;;;;;;4824369;29;20054;-77
2022/03/22 05:03:59;;;;;;;37.83;21.33;;;5.60;99.90;;;;;;4824364;29;20046;-77
2022/03/22 05:06:25;;;;;;;36.63;21.95;;;5.50;99.90;;;;;;4840176;29;20046;-76
2022/03/22 05:08:54;;;;;;;34.33;21.33;;;5.50;99.90;;;;;;4824351;29;20077;-77
2022/03/22 05:11:20;;;;;;;36.33;20.65;;;5.50;99.90;;;;;;4824096;29;20046;-77
2022/03/22 05:13:46;;;;;;;34.15;20.90;;;5.50;99.90;;;;;;4825702;29;20152;-77
2022/03/22 05:16:12;;;;;;;36.10;21.90;;;5.50;99.90;;;;;;4839295;29;20057;-76
2022/03/22 05:18:38;;;;;;;37.63;22.15;;;5.50;99.90;;;;;;4825117;29;20525;-77
2022/03/22 05:21:04;;;;;;;33.78;20.52;;;5.80;99.90;;;;;;4824125;29;20066;-77
2022/03/22 05:23:34;;;;;;;36.35;21.55;;;5.50;99.90;;;;;;4838941;29;20042;-77
2022/03/22 05:26:00;;;;;;;35.55;21.65;;;5.50;99.90;;;;;;4824082;29;20050;-77
2022/03/22 05:28:26;;;;;;;35.17;21.50;;;5.50;99.90;;;;;;4823694;29;20493;-77
2022/03/22 05:30:52;;;;;;;33.05;20.52;;;5.50;99.90;;;;;;4824829;29;20424;-76
2022/03/22 05:33:18;;;;;;;35.75;21.13;;;5.50;99.90;;;;;;4823961;29;20108;-77
2022/03/22 05:35:43;;;;;;;37.75;20.48;;;5.50;99.90;;;;;;4824186;29;20047;-77
2022/03/22 05:38:09;;;;;;;36.65;21.38;;;5.50;99.90;;;;;;4825407;29;20050;-76
2022/03/22 05:40:35;;;;;;;36.85;21.20;;;5.50;99.90;;;;;;4824630;29;20107;-76
2022/03/22 05:43:01;;;;;;;36.08;22.08;;;5.40;99.90;;;;;;4823598;29;20046;-77
2022/03/22 05:45:27;;;;;;;33.30;20.02;;;5.40;99.90;;;;;;4825279;29;20150;-77
2022/03/22 05:47:53;;;;;;;35.95;20.02;;;5.40;99.90;;;;;;4824573;29;20054;-78
2022/03/22 05:50:19;;;;;;;30.67;19.55;;;5.30;99.90;;;;;;4808563;29;20101;-77
2022/03/22 05:52:47;;;;;;;29.50;19.60;;;5.20;99.90;;;;;;4838812;29;20100;-77
2022/03/22 05:55:13;;;;;;;32.78;19.80;;;5.20;99.90;;;;;;4823904;29;20069;-77
2022/03/22 05:57:40;;;;;;;31.23;20.08;;;5.10;99.90;;;;;;4823655;29;20427;-77
2022/03/22 06:00:07;;;;;;;35.17;20.25;;;5.10;99.90;;;;;;4823674;29;20057;-77
2022/03/22 06:02:37;;;;;;;33.83;20.48;;;5.10;99.90;;;;;;4823438;29;20133;-77
2022/03/22 06:05:05;;;;;;;31.17;17.92;;;5.10;99.90;;;;;;4823629;29;20100;-77
2022/03/22 06:07:31;;;;;;;33.72;18.10;;;5.20;99.90;;;;;;4826275;29;20085;-77
2022/03/22 06:09:57;;;;;;;32.40;19.50;;;5.20;99.90;;;;;;4826994;29;20089;-77
2022/03/22 06:12:22;;;;;;;33.72;19.58;;;5.30;99.90;;;;;;4842223;29;20046;-77
2022/03/22 06:15:14;;;;;;;32.28;20.65;;;5.30;99.90;;;;;;4827207;29;20102;-77
2022/03/22 06:17:34;;;;;;;34.55;19.55;;;5.40;99.90;;;;;;4826703;29;20117;-77
2022/03/22 06:20:01;;;;;;;35.17;20.45;;;5.40;99.90;;;;;;4842103;29;20058;-76
2022/03/22 06:22:27;;;;;;;35.75;19.95;;;5.50;99.90;;;;;;4841930;29;20050;-77
2022/03/22 06:24:53;;;;;;;35.00;20.20;;;5.60;99.90;;;;;;4843012;29;20081;-77
2022/03/22 06:27:19;;;;;;;36.22;20.35;;;5.70;99.90;;;;;;4827191;29;20065;-77
2022/03/22 06:29:45;;;;;;;35.03;20.30;;;5.80;99.90;;;;;;4827302;29;20065;-77
2022/03/22 06:32:12;;;;;;;32.47;20.33;;;5.90;99.90;;;;;;4812415;29;20050;-77
2022/03/22 06:34:38;;;;;;;37.42;21.38;;;5.90;99.90;;;;;;4827036;29;20062;-77
2022/03/22 06:37:04;;;;;;;33.72;20.25;;;6.00;99.90;;;;;;4826646;29;20057;-77
2022/03/22 06:39:30;;;;;;;30.30;18.58;;;6.10;99.90;;;;;;4826593;29;20137;-77
2022/03/22 06:41:55;;;;;;;33.20;19.77;;;6.10;99.90;;;;;;4841540;29;20179;-77
2022/03/22 06:44:21;;;;;;;33.75;19.52;;;6.20;99.90;;;;;;4826486;29;20111;-77
2022/03/22 06:46:47;;;;;;;33.85;20.63;;;6.30;99.90;;;;;;4826498;29;20058;-77
2022/03/22 06:49:13;;;;;;;37.08;21.63;;;6.40;99.90;;;;;;4841665;29;20057;-77
2022/03/22 06:51:38;;;;;;;33.83;21.20;;;6.50;99.90;;;;;;4826453;29;20093;-77
2022/03/22 06:54:04;;;;;;;37.42;21.27;;;6.50;99.90;;;;;;4811437;29;20488;-77
2022/03/22 06:56:31;;;;;;;35.63;20.08;;;6.60;99.90;;;;;;4826556;29;20476;-77
2022/03/22 06:58:58;;;;;;;33.47;19.55;;;6.70;99.90;;;;;;4826278;29;20462;-77
2022/03/22 07:01:24;;;;;;;32.58;19.83;;;6.80;99.90;;;;;;4841401;29;20090;-76
2022/03/22 07:03:50;;;;;;;33.70;20.83;;;6.90;99.90;;;;;;4810952;29;20531;-77
2022/03/22 07:06:15;;;;;;;32.35;19.13;;;7.00;99.90;;;;;;4841262;29;20142;-77
2022/03/22 07:08:41;;;;;;;36.40;21.00;;;7.10;99.90;;;;;;4841186;29;20051;-77
2022/03/22 07:13:52;;;;;;;34.47;20.92;;;7.20;99.90;;;;;;4826334;29;20062;-76
2022/03/22 07:16:19;;;;;;;35.80;21.05;;;7.30;99.90;;;;;;4826993;29;20393;-75
2022/03/22 07:18:44;;;;;;;35.67;21.10;;;7.40;99.90;;;;;;4825314;29;20125;-76
2022/03/22 07:21:10;;;;;;;35.03;21.13;;;7.50;99.90;;;;;;4826955;29;20138;-76
2022/03/22 07:23:36;;;;;;;35.20;23.10;;;7.50;99.90;;;;;;4825886;29;20133;-76
2022/03/22 07:26:03;;;;;;;30.55;20.88;;;7.60;99.90;;;;;;4826810;29;20054;-76
2022/03/22 07:28:29;;;;;;;36.38;23.02;;;7.70;99.90;;;;;;4826686;29;20141;-76
2022/03/22 07:30:54;;;;;;;34.67;21.10;;;7.70;99.90;;;;;;4826670;29;20090;-76
2022/03/22 07:33:20;;;;;;;32.58;19.80;;;7.80;99.90;;;;;;4826707;29;20046;-76
2022/03/22 07:35:46;;;;;;;33.35;21.42;;;7.90;99.90;;;;;;4810524;29;20437;-75
2022/03/22 07:38:12;;;;;;;35.20;20.13;;;8.00;99.90;;;;;;4825908;29;20038;-75
2022/03/22 07:40:37;;;;;;;33.20;20.70;;;8.10;99.90;;;;;;4825645;29;20057;-76
2022/03/22 07:43:03;;;;;;;33.53;21.55;;;8.30;99.90;;;;;;4826953;29;20045;-76
2022/03/22 07:45:29;;;;;;;35.50;20.67;;;8.40;99.90;;;;;;4826440;29;20046;-75
2022/03/22 07:47:55;;;;;;;33.38;20.50;;;8.50;99.90;;;;;;4826503;29;20106;-76
2022/03/22 07:53:07;;;;;;;35.85;19.63;;;8.70;99.90;;;;;;4826686;29;20430;-76
2022/03/22 07:55:36;;;;;;;30.52;19.85;;;8.90;99.90;;;;;;4826352;29;20046;-76
2022/03/22 07:58:05;;;;;;;32.72;21.00;;;9.00;99.90;;;;;;4825994;29;20507;-76
2022/03/22 08:00:32;;;;;;;31.48;20.35;;;9.10;99.90;;;;;;4825034;29;20118;-76
2022/03/22 08:03:03;;;;;;;32.45;20.52;;;9.30;99.90;;;;;;4824803;29;20050;-76
2022/03/22 08:05:30;;;;;;;34.03;20.10;;;9.40;99.90;;;;;;4826128;29;20190;-76
2022/03/22 08:07:56;;;;;;;35.47;20.88;;;9.50;99.90;;;;;;4826202;29;20050;-75
2022/03/22 08:10:23;;;;;;;32.03;20.48;;;9.70;99.90;;;;;;4826720;29;20050;-75
2022/03/22 08:12:49;;;;;;;29.65;20.20;;;9.80;99.90;;;;;;4824695;29;20058;-75
2022/03/22 08:15:16;;;;;;;31.90;20.63;;;9.90;99.90;;;;;;4825368;29;20057;-74
2022/03/22 08:17:42;;;;;;;31.75;20.08;;;10.10;99.90;;;;;;4825998;29;20149;-76
2022/03/22 08:20:10;;;;;;;30.95;19.42;;;10.20;99.90;;;;;;4825992;29;20061;-77
2022/03/22 08:22:50;;;;;;;30.55;19.77;;;10.30;99.90;;;;;;4825840;29;20043;-78
2022/03/22 08:25:21;;;;;;;35.55;20.27;;;10.40;99.90;;;;;;4826217;29;20054;-77
2022/03/22 08:27:47;;;;;;;34.15;20.08;;;10.60;99.90;;;;;;4825862;29;20080;-76
2022/03/22 08:30:13;;;;;;;33.08;19.88;;;10.70;99.90;;;;;;4824191;29;20130;-76
2022/03/22 08:32:40;;;;;;;32.88;19.85;;;10.90;99.90;;;;;;4824577;29;20106;-77
2022/03/22 08:35:06;;;;;;;33.22;20.05;;;11.00;99.90;;;;;;4825725;29;20092;-75
2022/03/22 08:37:32;;;;;;;30.13;19.33;;;11.10;99.90;;;;;;4824748;29;20461;-76
2022/03/22 08:39:58;;;;;;;30.83;19.60;;;11.20;99.90;;;;;;4840035;29;20054;-76
2022/03/22 08:42:24;;;;;;;32.28;19.02;;;11.40;99.90;;;;;;4825579;29;20073;-77
2022/03/22 08:44:50;;;;;;;28.00;17.98;;;11.50;99.90;;;;;;4825960;29;20389;-78
2022/03/22 08:47:15;;;;;;;33.63;20.27;;;11.60;99.90;;;;;;4825471;29;20453;-74
2022/03/22 08:49:41;;;;;;;27.60;19.27;;;11.80;99.90;;;;;;4825496;29;20046;-75
2022/03/22 08:52:07;;;;;;;29.08;19.13;;;11.90;99.90;;;;;;4825412;29;20515;-75
2022/03/22 08:54:33;;;;;;;29.58;19.13;;;12.00;99.90;;;;;;4825488;29;20119;-76
2022/03/22 08:56:59;;;;;;;31.20;20.20;;;12.20;99.90;;;;;;4824444;29;20195;-76
2022/03/22 08:59:24;;;;;;;29.67;18.92;;;12.30;99.90;;;;;;4825838;29;20047;-75
2022/03/22 09:01:50;;;;;;;32.17;20.73;;;12.50;99.90;;;;;;4824267;29;20050;-75
2022/03/22 09:07:00;;;;;;;29.33;18.08;;;12.70;99.90;;;;;;4826309;29;20107;-76
2022/03/22 09:09:29;;;;;;;32.88;18.65;;;12.90;99.90;;;;;;4828045;29;20132;-76
2022/03/22 09:11:55;;;;;;;24.00;13.88;;;13.00;99.90;;;;;;4831660;29;20110;-77
2022/03/22 09:14:20;;;;;;;25.15;14.68;;;13.10;99.90;;;;;;4826625;29;20141;-77
2022/03/22 09:16:46;;;;;;;25.88;14.75;;;13.30;99.90;;;;;;4825298;29;20488;-76
2022/03/22 09:19:12;;;;;;;22.05;13.52;;;13.40;99.90;;;;;;4825802;29;20057;-76
2022/03/22 09:21:39;;;;;;;22.35;14.10;;;13.60;99.90;;;;;;4824844;29;20058;-77
2022/03/22 09:24:05;;;;;;;20.90;13.60;;;13.80;99.90;;;;;;4825009;29;20050;-76
2022/03/22 09:26:32;;;;;;;25.48;14.48;;;13.90;99.90;;;;;;4824944;29;20050;-76
2022/03/22 09:28:58;;;;;;;21.67;13.98;;;14.00;99.90;;;;;;4824576;29;20146;-76
2022/03/22 09:31:24;;;;;;;21.95;14.50;;;14.10;99.90;;;;;;4824683;29;20106;-76
2022/03/22 09:33:51;;;;;;;24.85;14.43;;;14.40;99.90;;;;;;4825719;29;20093;-76
2022/03/22 09:36:18;;;;;;;21.08;14.00;;;14.50;99.90;;;;;;4824727;29;20055;-75
2022/03/22 09:38:44;;;;;;;21.23;13.02;;;14.60;99.90;;;;;;4823664;29;20499;-76
2022/03/22 09:41:13;;;;;;;21.85;13.55;;;14.70;99.90;;;;;;4824547;29;20072;-76
2022/03/22 09:43:47;;;;;;;23.92;13.65;;;14.80;99.90;;;;;;4838720;29;20057;-76
2022/03/22 09:46:22;;;;;;;20.27;12.90;;;14.90;99.90;;;;;;4824859;29;20503;-76
2022/03/22 09:48:48;;;;;;;21.70;13.82;;;14.90;99.90;;;;;;4824588;29;20115;-76
2022/03/22 09:54:01;;;;;;;20.77;13.93;;;15.10;99.90;;;;;;4824827;29;20519;-77
2022/03/22 09:56:30;;;;;;;20.05;12.80;;;15.20;99.90;;;;;;4825427;29;20046;-78
2022/03/22 09:59:00;;;;;;;24.05;14.88;;;15.20;99.90;;;;;;4823853;29;20055;-78
2022/03/22 10:01:26;;;;;;;23.00;14.93;;;15.20;99.90;;;;;;4824576;29;20046;-77
2022/03/22 10:04:00;;;;;;;23.20;14.95;;;15.30;99.90;;;;;;4824152;29;20497;-77
2022/03/22 10:06:28;;;;;;;21.73;14.23;;;15.40;99.90;;;;;;4824545;29;20054;-78
2022/03/22 10:08:54;;;;;;;21.55;13.48;;;15.60;99.90;;;;;;4823775;29;20047;-76
2022/03/22 10:11:20;;;;;;;22.50;14.32;;;15.70;99.90;;;;;;4823332;29;20400;-76
2022/03/22 10:13:53;;;;;;;21.88;13.25;;;15.90;99.90;;;;;;4823077;29;20550;-76
2022/03/22 10:16:18;;;;;;;24.60;14.55;;;16.00;99.90;;;;;;4824151;29;20099;-76
2022/03/22 10:18:44;;;;;;;20.23;13.75;;;16.00;99.90;;;;;;4824335;29;20497;-76
2022/03/22 10:21:10;;;;;;;20.38;13.73;;;16.10;99.90;;;;;;4824280;29;20066;-76
2022/03/22 10:23:54;;;;;;;21.25;14.00;;;16.20;99.90;;;;;;4823161;29;20114;-76
2022/03/22 10:26:20;;;;;;;22.17;14.20;;;16.50;99.90;;;;;;4823636;29;20075;-76
2022/03/22 10:28:55;;;;;;;23.15;14.82;;;16.70;99.90;;;;;;4824454;29;20062;-76
2022/03/22 10:31:37;;;;;;;24.42;14.57;;;16.90;99.90;;;;;;4824731;29;20054;-77
2022/03/22 10:34:04;;;;;;;21.25;14.20;;;17.10;99.90;;;;;;4824259;29;20062;-77
2022/03/22 10:36:35;;;;;;;22.38;14.68;;;17.20;99.90;;;;;;4823985;29;20461;-78
2022/03/22 10:39:04;;;;;;;21.08;14.98;;;17.30;99.90;;;;;;4824713;29;20054;-77
2022/03/22 10:41:31;;;;;;;23.58;15.55;;;17.40;99.90;;;;;;4837844;29;20046;-77
2022/03/22 10:44:05;;;;;;;22.35;14.55;;;17.60;99.90;;;;;;4807668;29;20058;-77
2022/03/22 10:46:31;;;;;;;19.70;13.80;;;17.70;99.90;;;;;;4824761;29;20050;-77
2022/03/22 10:49:06;;;;;;;22.73;14.98;;;17.70;99.90;;;;;;4823421;29;20058;-76
2022/03/22 10:51:36;;;;;;;21.60;15.02;;;17.70;99.90;;;;;;4824518;29;20050;-77
2022/03/22 10:54:02;;;;;;;21.17;14.15;;;17.80;99.90;;;;;;4825527;29;20054;-75
2022/03/22 10:56:28;;;;;;;23.33;14.50;;;17.90;99.90;;;;;;4827130;29;20491;-75
2022/03/22 10:58:59;;;;;;;23.90;15.43;;;18.00;99.90;;;;;;4826562;29;20053;-75
2022/03/22 11:01:25;;;;;;;20.52;14.00;;;18.10;99.90;;;;;;4827263;29;20064;-73
2022/03/22 11:03:56;;;;;;;23.67;15.00;;;18.20;99.90;;;;;;4826986;29;20069;-73
2022/03/22 11:06:25;;;;;;;22.15;14.75;;;18.10;99.90;;;;;;4827115;29;20054;-74
2022/03/22 11:08:51;;;;;;;21.90;14.15;;;18.10;99.90;;;;;;4827072;29;20092;-74
2022/03/22 11:11:17;;;;;;;21.63;13.75;;;18.20;99.90;;;;;;4827172;29;20086;-76
2022/03/22 11:13:43;;;;;;;21.40;14.32;;;18.20;99.90;;;;;;4825911;29;20087;-75
2022/03/22 11:16:10;;;;;;;22.42;14.82;;;18.30;99.90;;;;;;4826845;29;20054;-75
2022/03/22 11:18:37;;;;;;;22.48;14.82;;;18.50;99.90;;;;;;4826761;29;20047;-74
2022/03/22 11:21:03;;;;;;;23.20;14.32;;;18.50;99.90;;;;;;4826837;29;20054;-75
2022/03/22 11:23:31;;;;;;;21.08;14.75;;;18.50;99.90;;;;;;4826592;29;20133;-74
2022/03/22 11:26:17;;;;;;;20.92;13.70;;;18.40;99.90;;;;;;4826720;29;20433;-76
2022/03/22 11:28:45;;;;;;;20.80;14.30;;;18.30;99.90;;;;;;4827028;29;20137;-76
2022/03/22 11:31:14;;;;;;;22.67;15.02;;;18.40;99.90;;;;;;4826697;29;20061;-75
2022/03/22 11:36:26;;;;;;;21.25;14.45;;;18.70;99.90;;;;;;4827377;29;20059;-73
2022/03/22 11:38:56;;;;;;;25.90;14.63;;;18.80;99.90;;;;;;4825268;29;20042;-73
2022/03/22 11:44:34;;;;;;;24.10;14.57;;;18.90;99.90;;;;;;4826378;29;20054;-73
2022/03/22 11:47:14;;;;;;;24.83;14.73;;;19.00;99.90;;;;;;4826679;29;20107;-74
2022/03/22 11:50:11;;;;;;;20.17;14.15;;;19.10;99.90;;;;;;4826281;29;20085;-74
2022/03/22 11:52:41;;;;;;;22.13;14.50;;;19.20;99.90;;;;;;4826728;29;20504;-75
2022/03/22 11:55:12;;;;;;;23.52;14.80;;;19.20;99.90;;;;;;4826325;29;20050;-74
2022/03/22 11:57:52;;;;;;;24.75;14.63;;;19.20;99.90;;;;;;4825820;29;20137;-74
2022/03/22 12:00:21;;;;;;;22.05;13.75;;;19.30;99.90;;;;;;4826834;29;20190;-76
2022/03/22 12:02:53;;;;;;;22.00;13.70;;;19.30;99.90;;;;;;4826272;29;20492;-76
2022/03/22 12:05:22;;;;;;;24.38;14.20;;;19.30;99.90;;;;;;4825855;29;20133;-76
2022/03/22 12:07:50;;;;;;;23.92;13.80;;;19.40;99.90;;;;;;4826007;29;20057;-76
2022/03/22 12:10:17;;;;;;;25.15;14.80;;;19.50;99.90;;;;;;4825743;29;20119;-77
2022/03/22 12:12:52;;;;;;;24.55;13.95;;;19.60;99.90;;;;;;4826061;29;20050;-77
2022/03/22 12:15:23;;;;;;;24.00;15.17;;;19.60;99.90;;;;;;4826163;29;20062;-77
2022/03/22 12:17:50;;;;;;;23.27;14.18;;;19.60;99.90;;;;;;4826437;29;20592;-77
2022/03/22 12:20:18;;;;;;;21.35;14.20;;;19.60;99.90;;;;;;4839978;29;20470;-78
2022/03/22 12:22:50;;;;;;;23.52;15.00;;;19.60;99.90;;;;;;4825018;29;20050;-77
2022/03/22 12:25:19;;;;;;;23.58;14.57;;;19.60;99.90;;;;;;4825899;29;20061;-77
2022/03/22 12:27:54;;;;;;;25.92;14.75;;;19.60;99.90;;;;;;4825141;29;20366;-78
2022/03/22 12:30:22;;;;;;;22.67;13.95;;;19.60;99.90;;;;;;4826288;29;20065;-77
2022/03/22 12:32:59;;;;;;;23.50;13.88;;;19.60;99.90;;;;;;4825709;29;20054;-77
2022/03/22 12:35:26;;;;;;;25.33;14.93;;;19.70;99.90;;;;;;4825821;29;20050;-76
2022/03/22 12:37:52;;;;;;;23.88;15.18;;;19.90;99.90;;;;;;4839625;29;20397;-77
2022/03/22 12:40:20;;;;;;;21.23;14.00;;;20.20;99.90;;;;;;4825572;29;20062;-78
2022/03/22 12:42:49;;;;;;;25.13;15.25;;;20.50;99.90;;;;;;4809246;29;20133;-77
2022/03/22 12:45:16;;;;;;;23.90;14.63;;;20.80;99.90;;;;;;4825527;29;20511;-75
2022/03/22 12:47:42;;;;;;;22.20;14.52;;;20.70;99.90;;;;;;4839495;29;20146;-77
2022/03/22 12:50:11;;;;;;;22.70;14.48;;;20.70;99.90;;;;;;4825534;29;20094;-76
2022/03/22 12:52:37;;;;;;;21.30;14.05;;;20.80;99.90;;;;;;4824983;29;20559;-74
2022/03/22 12:55:05;;;;;;;21.90;14.35;;;21.00;99.90;;;;;;4825801;29;20115;-74
2022/03/22 12:57:30;;;;;;;24.73;15.95;;;21.30;99.90;;;;;;4825371;29;20051;-73
2022/03/22 12:59:57;;;;;;;24.30;14.50;;;21.60;99.90;;;;;;4825150;29;20098;-75
2022/03/22 13:02:23;;;;;;;22.05;13.98;;;21.80;99.90;;;;;;4824240;29;20053;-75
2022/03/22 13:04:50;;;;;;;23.33;15.25;;;21.90;99.90;;;;;;4825265;29;20058;-75
2022/03/22 13:07:27;;;;;;;23.70;14.88;;;22.00;99.90;;;;;;4824523;29;20114;-75
2022/03/22 13:12:43;;;;;;;25.60;15.85;;;22.40;99.60;;;;;;4825225;29;20050;-75
2022/03/22 13:15:14;;;;;;;21.65;14.55;;;22.60;99.90;;;;;;4825728;29;20187;-76
2022/03/22 13:17:43;;;;;;;25.58;15.65;;;22.60;99.80;;;;;;4824698;29;20050;-77
2022/03/22 13:20:24;;;;;;;27.00;15.80;;;22.80;99.40;;;;;;4825095;29;20054;-76
2022/03/22 13:23:06;;;;;;;23.10;16.17;;;23.10;98.90;;;;;;4825025;29;20046;-75
2022/03/22 13:25:34;;;;;;;24.73;15.73;;;23.20;96.80;;;;;;4824921;29;20058;-76